createdAt,value
2023-05-19T00:01:30.244Z,4.00
2023-05-19T00:03:59.132Z,4.72
2023-05-19T00:06:27.491Z,4.43
2023-05-19T00:08:59.368Z,4.65
2023-05-19T00:11:27.833Z,3.80
2023-05-19T00:13:55.747Z,4.20
2023-05-19T00:16:23.773Z,4.25
2023-05-19T00:18:51.830Z,3.60
2023-05-19T00:21:19.358Z,4.40
2023-05-19T00:23:46.622Z,4.45
2023-05-19T00:26:14.132Z,4.07
2023-05-19T00:28:51.583Z,3.97
2023-05-19T00:31:19.088Z,4.13
2023-05-19T00:33:54.494Z,4.05
2023-05-19T00:36:29.587Z,3.75
2023-05-19T00:39:11.110Z,4.32
2023-05-19T00:41:47.987Z,3.67
2023-05-19T00:44:15.500Z,3.83
2023-05-19T00:46:46.389Z,3.85
2023-05-19T00:49:13.778Z,4.30
2023-05-19T00:51:41.741Z,3.80
2023-05-19T00:54:09.270Z,3.95
2023-05-19T00:56:36.616Z,4.07
2023-05-19T00:59:03.931Z,3.90
2023-05-19T01:01:32.533Z,4.10
2023-05-19T01:04:09.934Z,4.13
2023-05-19T01:06:40.591Z,4.28
2023-05-19T01:09:20.585Z,4.57
2023-05-19T01:11:48.018Z,4.22
2023-05-19T01:14:27.290Z,3.70
2023-05-19T01:17:24.112Z,4.13
2023-05-19T01:20:05.199Z,4.15
2023-05-19T01:22:44.462Z,4.35
2023-05-19T01:25:13.080Z,4.45
2023-05-19T01:27:40.626Z,3.92
2023-05-19T01:30:28.003Z,3.72
2023-05-19T01:32:57.869Z,4.30
2023-05-19T01:35:26.313Z,5.35
2023-05-19T01:37:55.771Z,4.95
2023-05-19T01:40:23.571Z,4.38
2023-05-19T01:42:57.511Z,4.72
2023-05-19T01:45:33.698Z,4.25
2023-05-19T01:48:26.524Z,4.00
2023-05-19T01:50:53.863Z,4.40
2023-05-19T01:53:21.474Z,4.53
2023-05-19T01:55:53.095Z,5.30
2023-05-19T01:58:32.317Z,4.32
2023-05-19T02:01:25.451Z,4.45
2023-05-19T02:04:11.806Z,4.82
2023-05-19T02:06:50.486Z,4.65
2023-05-19T02:09:20.802Z,4.20
2023-05-19T02:11:53.491Z,5.20
2023-05-19T02:14:39.531Z,4.95
2023-05-19T02:17:06.861Z,4.57
2023-05-19T02:19:36.063Z,4.30
2023-05-19T02:22:10.271Z,4.47
2023-05-19T02:24:44.425Z,5.22
2023-05-19T02:27:39.781Z,4.68
2023-05-19T02:30:11.255Z,4.85
2023-05-19T02:32:38.569Z,4.57
2023-05-19T02:35:06.100Z,5.10
2023-05-19T02:37:36.052Z,5.03
2023-05-19T02:40:10.557Z,4.50
2023-05-19T02:42:38.647Z,4.50
2023-05-19T02:45:09.294Z,4.90
2023-05-19T02:48:08.427Z,5.47
2023-05-19T02:50:36.360Z,5.65
2023-05-19T02:53:05.073Z,6.03
2023-05-19T02:55:32.398Z,4.32
2023-05-19T02:58:22.584Z,4.60
2023-05-19T03:00:48.290Z,4.70
2023-05-19T03:03:16.239Z,4.57
2023-05-19T03:05:44.457Z,5.38
2023-05-19T03:08:16.988Z,4.80
2023-05-19T03:11:09.696Z,5.25
2023-05-19T03:13:37.231Z,5.13
2023-05-19T03:16:04.616Z,4.60
2023-05-19T03:18:57.469Z,4.65
2023-05-19T03:21:24.983Z,5.30
2023-05-19T03:23:52.341Z,5.15
2023-05-19T03:26:29.406Z,5.03
2023-05-19T03:29:01.784Z,5.45
2023-05-19T03:31:37.562Z,5.55
2023-05-19T03:34:08.996Z,5.57
2023-05-19T03:36:42.939Z,5.30
2023-05-19T03:39:20.157Z,4.68
2023-05-19T03:41:50.117Z,5.35
2023-05-19T03:44:45.805Z,5.05
2023-05-19T03:47:13.632Z,5.78
2023-05-19T03:49:59.721Z,5.80
2023-05-19T03:52:27.081Z,5.80
2023-05-19T03:55:10.345Z,5.07
2023-05-19T03:57:37.850Z,5.70
2023-05-19T04:00:06.225Z,5.85
2023-05-19T04:02:39.578Z,5.22
2023-05-19T04:05:10.924Z,5.60
2023-05-19T04:07:38.513Z,5.82
2023-05-19T04:10:31.734Z,5.32
2023-05-19T04:12:59.222Z,5.50
2023-05-19T04:15:30.137Z,5.65
2023-05-19T04:17:57.561Z,5.20
2023-05-19T04:20:24.947Z,6.03
2023-05-19T04:22:52.387Z,5.95
2023-05-19T04:25:28.422Z,5.18
2023-05-19T04:30:49.789Z,5.25
2023-05-19T04:33:17.895Z,5.55
2023-05-19T04:35:45.317Z,5.70
2023-05-19T04:38:13.735Z,5.30
2023-05-19T04:40:42.567Z,5.28
2023-05-19T04:46:02.287Z,5.85
2023-05-19T04:48:31.051Z,6.45
2023-05-19T04:50:58.584Z,5.90
2023-05-19T04:53:35.381Z,5.00
2023-05-19T04:56:02.998Z,5.57
2023-05-19T04:58:32.342Z,6.55
2023-05-19T05:00:59.789Z,5.47
2023-05-19T05:03:28.070Z,5.10
2023-05-19T05:06:00.693Z,5.38
2023-05-19T05:08:28.383Z,5.10
2023-05-19T05:10:56.950Z,5.32
2023-05-19T05:13:43.662Z,5.78
2023-05-19T05:19:38.779Z,5.22
2023-05-19T05:25:16.392Z,5.53
2023-05-19T05:27:54.196Z,5.05
2023-05-19T05:30:47.388Z,5.80
2023-05-19T05:33:16.100Z,5.30
2023-05-19T05:35:43.586Z,5.88
2023-05-19T05:38:14.160Z,5.20
2023-05-19T05:40:42.526Z,5.40
2023-05-19T05:43:10.568Z,5.53
2023-05-19T05:45:45.055Z,5.35
2023-05-19T05:48:12.754Z,5.18
2023-05-19T05:50:42.907Z,5.57
2023-05-19T05:53:20.256Z,5.72
2023-05-19T05:55:51.150Z,7.15
2023-05-19T05:58:28.901Z,5.63
2023-05-19T06:00:58.049Z,5.22
2023-05-19T06:03:41.816Z,6.13
2023-05-19T06:09:19.479Z,5.75
2023-05-19T06:11:54.136Z,5.88
2023-05-19T06:14:27.846Z,5.45
2023-05-19T06:17:13.662Z,5.50
2023-05-19T06:19:44.454Z,5.65
2023-05-19T06:22:12.017Z,6.05
2023-05-19T06:24:43.631Z,5.38
2023-05-19T06:27:19.689Z,5.45
2023-05-19T06:29:59.579Z,5.85
2023-05-19T06:32:38.077Z,5.15
2023-05-19T06:35:16.352Z,5.50
2023-05-19T06:37:43.715Z,5.35
2023-05-19T06:40:37.497Z,4.97
2023-05-19T06:43:07.140Z,5.95
2023-05-19T06:45:54.783Z,6.40
2023-05-19T06:48:47.319Z,5.18
2023-05-19T06:51:24.841Z,5.30
2023-05-19T06:53:56.439Z,5.32
2023-05-19T06:56:24.533Z,5.15
2023-05-19T06:58:57.537Z,5.75
2023-05-19T07:01:32.316Z,5.38
2023-05-19T07:07:01.173Z,5.22
2023-05-19T07:09:28.587Z,5.35
2023-05-19T07:11:57.390Z,5.03
2023-05-19T07:14:39.016Z,5.68
2023-05-19T07:17:07.056Z,5.50
2023-05-19T07:22:30.957Z,5.53
2023-05-19T07:24:58.273Z,4.95
2023-05-19T07:30:07.131Z,5.53
2023-05-19T07:32:34.772Z,5.75
2023-05-19T07:35:06.146Z,5.75
2023-05-19T07:37:36.171Z,5.18
2023-05-19T07:40:03.494Z,5.00
2023-05-19T07:42:30.878Z,5.85
2023-05-19T07:45:04.189Z,5.43
2023-05-19T07:47:35.000Z,5.45
2023-05-19T07:50:03.866Z,4.85
2023-05-19T07:52:31.315Z,5.00
2023-05-19T07:54:59.536Z,5.10
2023-05-19T07:57:51.996Z,5.50
2023-05-19T08:00:25.466Z,4.78
2023-05-19T08:03:18.483Z,5.20
2023-05-19T08:05:46.469Z,5.57
2023-05-19T08:08:19.894Z,5.38
2023-05-19T08:10:53.085Z,5.30
2023-05-19T08:13:23.297Z,5.28
2023-05-19T08:15:50.635Z,5.00
2023-05-19T08:18:17.932Z,4.47
2023-05-19T08:20:46.448Z,4.72
2023-05-19T08:23:14.196Z,4.10
2023-05-19T08:25:41.818Z,4.20
2023-05-19T08:28:09.017Z,3.38
2023-05-19T08:30:36.262Z,2.67
2023-05-19T08:33:03.542Z,2.97
2023-05-19T08:35:31.578Z,3.72
2023-05-19T08:37:58.898Z,2.70
2023-05-19T08:40:27.417Z,2.88
2023-05-19T08:42:54.978Z,2.47
2023-05-19T08:45:22.268Z,2.53
2023-05-19T08:47:51.556Z,2.88
2023-05-19T08:50:24.917Z,2.30
2023-05-19T08:53:01.687Z,2.38
2023-05-19T08:55:31.684Z,2.40
2023-05-19T08:58:00.836Z,2.50
2023-05-19T09:00:29.831Z,2.40
2023-05-19T09:03:01.420Z,2.80
2023-05-19T09:05:39.177Z,2.70
2023-05-19T09:08:06.114Z,2.92
2023-05-19T09:10:39.634Z,2.50
2023-05-19T09:13:06.944Z,2.10
2023-05-19T09:15:41.999Z,2.03
2023-05-19T09:18:11.747Z,2.60
2023-05-19T09:20:43.794Z,2.17
2023-05-19T09:23:16.295Z,2.45
2023-05-19T09:25:50.230Z,2.50
2023-05-19T09:28:33.794Z,2.83
2023-05-19T09:31:04.781Z,2.78
2023-05-19T09:33:36.663Z,2.60
2023-05-19T09:36:06.401Z,2.90
2023-05-19T09:38:33.806Z,2.30
2023-05-19T09:41:01.622Z,2.55
2023-05-19T09:43:29.762Z,2.50
2023-05-19T09:46:28.350Z,2.70
2023-05-19T09:49:01.297Z,2.33
2023-05-19T09:51:32.139Z,2.20
2023-05-19T09:53:59.614Z,2.90
2023-05-19T09:56:34.358Z,2.47
2023-05-19T09:59:05.082Z,2.53
2023-05-19T10:01:33.754Z,2.47
2023-05-19T10:04:01.917Z,2.33
2023-05-19T10:06:30.904Z,2.42
2023-05-19T10:08:59.875Z,2.90
2023-05-19T10:11:27.404Z,2.58
2023-05-19T10:13:54.740Z,2.55
2023-05-19T10:16:22.827Z,2.63
2023-05-19T10:18:52.743Z,2.50
2023-05-19T10:21:19.645Z,2.65
2023-05-19T10:23:47.454Z,2.67
2023-05-19T10:26:14.937Z,2.47
2023-05-19T10:28:44.625Z,2.60
2023-05-19T10:31:17.175Z,2.80
2023-05-19T10:34:08.466Z,2.55
2023-05-19T10:36:38.410Z,3.42
2023-05-19T10:39:16.683Z,2.40
2023-05-19T10:42:02.912Z,2.33
2023-05-19T10:45:07.482Z,2.20
2023-05-19T10:47:35.293Z,2.80
2023-05-19T10:50:02.185Z,2.80
2023-05-19T10:52:31.030Z,3.33
2023-05-19T10:54:58.591Z,2.90
2023-05-19T10:57:32.232Z,2.47
2023-05-19T11:00:11.744Z,3.58
2023-05-19T11:02:41.307Z,3.00
2023-05-19T11:05:16.896Z,3.55
2023-05-19T11:08:05.273Z,2.40
2023-05-19T11:10:32.527Z,2.70
2023-05-19T11:12:59.842Z,2.83
2023-05-19T11:15:28.215Z,2.90
2023-05-19T11:17:55.778Z,3.67
2023-05-19T11:20:27.819Z,4.53
2023-05-19T11:23:30.429Z,2.97
2023-05-19T11:25:57.497Z,4.53
2023-05-19T11:28:29.366Z,3.13
2023-05-19T11:30:59.009Z,2.67
2023-05-19T11:33:27.604Z,4.47
2023-05-19T11:35:59.541Z,3.45
2023-05-19T11:38:32.256Z,3.05
2023-05-19T11:40:59.558Z,3.45
2023-05-19T11:43:27.085Z,10.35
2023-05-19T11:45:54.748Z,3.55
2023-05-19T11:48:25.372Z,2.50
2023-05-19T11:50:53.058Z,4.32
2023-05-19T11:56:27.124Z,2.63
2023-05-19T11:58:54.793Z,2.67
2023-05-19T12:01:47.952Z,2.45
2023-05-19T12:04:24.256Z,2.63
2023-05-19T12:06:54.493Z,3.55
2023-05-19T12:09:25.496Z,4.57
2023-05-19T12:11:53.110Z,3.33
2023-05-19T12:14:29.271Z,2.72
2023-05-19T12:17:09.627Z,2.63
2023-05-19T12:19:37.229Z,6.03
2023-05-19T12:22:10.450Z,4.72
2023-05-19T12:24:38.830Z,2.95
2023-05-19T12:27:27.674Z,2.63
2023-05-19T12:29:56.053Z,3.03
2023-05-19T12:32:29.232Z,2.75
2023-05-19T12:34:57.315Z,3.00
2023-05-19T12:37:50.738Z,3.30
2023-05-19T12:40:18.090Z,3.03
2023-05-19T12:42:45.473Z,3.60
2023-05-19T12:45:12.819Z,3.00
2023-05-19T12:47:42.640Z,3.00
2023-05-19T12:50:19.212Z,3.75
2023-05-19T12:52:48.017Z,3.65
2023-05-19T12:55:16.589Z,3.15
2023-05-19T12:57:45.140Z,3.75
2023-05-19T13:00:12.548Z,3.42
2023-05-19T13:03:00.348Z,3.60
2023-05-19T13:05:31.922Z,3.60
2023-05-19T13:08:02.331Z,3.20
2023-05-19T13:10:39.393Z,3.42
2023-05-19T13:13:07.480Z,2.45
2023-05-19T13:15:38.024Z,2.63
2023-05-19T13:18:07.503Z,3.45
2023-05-19T13:20:35.301Z,3.05
2023-05-19T13:23:03.673Z,2.75
2023-05-19T13:25:31.536Z,2.83
2023-05-19T13:28:01.219Z,2.90
2023-05-19T13:30:28.576Z,2.75
2023-05-19T13:32:56.235Z,3.05
2023-05-19T13:35:23.947Z,2.97
2023-05-19T13:37:51.330Z,2.97
2023-05-19T13:40:19.257Z,2.90
2023-05-19T13:42:46.852Z,3.28
2023-05-19T13:45:14.426Z,4.68
2023-05-19T13:47:41.766Z,3.13
2023-05-19T13:50:08.883Z,3.10
2023-05-19T13:52:36.079Z,3.63
2023-05-19T13:55:03.703Z,2.90
2023-05-19T13:57:30.998Z,3.42
2023-05-19T14:00:03.232Z,2.70
2023-05-19T14:02:40.037Z,2.72
2023-05-19T14:05:08.240Z,2.95
2023-05-19T14:07:35.832Z,3.78
2023-05-19T14:10:04.175Z,3.17
2023-05-19T14:12:41.470Z,2.63
2023-05-19T14:15:20.881Z,3.13
2023-05-19T14:17:49.074Z,2.85
2023-05-19T14:20:19.526Z,4.22
2023-05-19T14:22:46.930Z,2.80
2023-05-19T14:25:16.536Z,2.67
2023-05-19T14:27:43.884Z,3.20
2023-05-19T14:30:16.940Z,3.30
2023-05-19T14:33:06.199Z,3.47
2023-05-19T14:36:02.479Z,3.13
2023-05-19T14:38:29.940Z,2.90
2023-05-19T14:40:57.423Z,3.28
2023-05-19T14:43:28.484Z,3.38
2023-05-19T14:45:55.868Z,2.88
2023-05-19T14:52:06.604Z,3.08
2023-05-19T14:55:21.913Z,4.65
2023-05-19T14:58:10.177Z,3.85
2023-05-19T15:01:12.553Z,2.90
2023-05-19T15:03:45.182Z,3.03
2023-05-19T15:06:19.961Z,2.90
2023-05-19T15:09:00.168Z,4.32
2023-05-19T15:11:34.853Z,2.63
2023-05-19T15:14:02.267Z,3.30
2023-05-19T15:16:30.387Z,3.55
2023-05-19T15:18:58.927Z,3.25
2023-05-19T15:21:28.753Z,2.05
2023-05-19T15:23:56.306Z,3.45
2023-05-19T15:29:11.105Z,17.70
2023-05-19T15:31:39.685Z,4.35
2023-05-19T15:34:31.795Z,3.50
2023-05-19T15:37:05.552Z,3.10
2023-05-19T15:39:33.859Z,2.90
2023-05-19T15:42:10.230Z,2.72
2023-05-19T15:44:37.681Z,2.42
2023-05-19T15:49:46.308Z,3.65
2023-05-19T15:52:13.561Z,2.80
2023-05-19T15:54:41.003Z,2.40
2023-05-19T15:59:51.961Z,2.50
2023-05-19T16:02:19.453Z,2.45
2023-05-19T16:04:46.832Z,2.60
2023-05-19T16:07:14.126Z,2.55
2023-05-19T16:09:43.729Z,2.42
2023-05-19T16:12:10.941Z,3.05
2023-05-19T16:14:38.448Z,2.30
2023-05-19T16:17:11.412Z,2.40
2023-05-19T16:19:38.989Z,2.67
2023-05-19T16:22:08.439Z,2.75
2023-05-19T16:24:46.189Z,2.53
2023-05-19T16:27:13.437Z,2.70
2023-05-19T16:29:40.397Z,2.53
2023-05-19T16:32:10.724Z,3.15
2023-05-19T16:34:38.201Z,2.85
2023-05-19T16:37:05.831Z,2.85
2023-05-19T16:39:33.004Z,2.78
2023-05-19T16:42:00.445Z,2.80
2023-05-19T16:44:27.865Z,2.60
2023-05-19T16:46:55.070Z,2.50
2023-05-19T16:49:22.323Z,2.53
2023-05-19T16:51:49.947Z,2.53
2023-05-19T16:54:17.358Z,2.42
2023-05-19T16:56:44.611Z,2.75
2023-05-19T16:59:11.829Z,2.80
2023-05-19T17:01:39.312Z,3.05
2023-05-19T17:04:09.552Z,2.85
2023-05-19T17:06:36.584Z,2.63
2023-05-19T17:09:03.840Z,2.50
2023-05-19T17:11:31.037Z,2.83
2023-05-19T17:13:59.273Z,2.63
2023-05-19T17:16:26.571Z,3.03
2023-05-19T17:18:58.662Z,2.67
2023-05-19T17:21:25.747Z,2.38
2023-05-19T17:23:53.296Z,2.60
2023-05-19T17:26:21.470Z,2.85
2023-05-19T17:28:48.878Z,2.63
2023-05-19T17:31:21.883Z,2.70
2023-05-19T17:33:49.160Z,2.83
2023-05-19T17:36:18.484Z,2.65
2023-05-19T17:38:45.705Z,3.20
2023-05-19T17:41:16.334Z,4.28
2023-05-19T17:43:43.448Z,3.00
2023-05-19T17:46:12.667Z,2.80
2023-05-19T17:48:42.307Z,3.28
2023-05-19T17:51:09.799Z,3.58
2023-05-19T17:53:38.690Z,3.45
2023-05-19T17:56:09.030Z,3.13
2023-05-19T17:58:36.565Z,3.60
2023-05-19T18:01:06.862Z,3.13
2023-05-19T18:03:43.580Z,3.83
2023-05-19T18:06:11.859Z,3.17
2023-05-19T18:08:42.557Z,4.60
2023-05-19T18:11:13.425Z,3.25
2023-05-19T18:13:41.033Z,3.35
2023-05-19T18:16:08.419Z,2.85
2023-05-19T18:18:43.650Z,3.63
2023-05-19T18:21:17.288Z,3.50
2023-05-19T18:23:45.358Z,3.75
2023-05-19T18:26:15.434Z,3.17
2023-05-19T18:28:43.443Z,3.88
2023-05-19T18:31:15.684Z,3.10
2023-05-19T18:33:47.273Z,3.00
2023-05-19T18:36:17.501Z,3.33
2023-05-19T18:38:50.212Z,3.22
2023-05-19T18:41:17.628Z,5.03
2023-05-19T18:43:45.103Z,3.63
2023-05-19T18:46:13.603Z,5.05
2023-05-19T18:48:40.592Z,3.30
2023-05-19T18:51:07.765Z,3.00
2023-05-19T18:53:35.464Z,3.20
2023-05-19T18:56:05.981Z,3.70
2023-05-19T18:58:33.191Z,3.70
2023-05-19T19:01:00.447Z,4.10
2023-05-19T19:03:28.599Z,4.35
2023-05-19T19:05:59.569Z,4.63
2023-05-19T19:08:26.784Z,4.10
2023-05-19T19:10:59.169Z,3.70
2023-05-19T19:13:26.428Z,4.88
2023-05-19T19:15:53.848Z,4.57
2023-05-19T19:18:21.084Z,4.15
2023-05-19T19:20:48.568Z,5.00
2023-05-19T19:23:16.204Z,3.95
2023-05-19T19:25:43.435Z,4.43
2023-05-19T19:28:10.768Z,4.63
2023-05-19T19:30:38.135Z,5.15
2023-05-19T19:33:06.849Z,3.42
2023-05-19T19:35:34.930Z,3.95
2023-05-19T19:38:02.134Z,4.70
2023-05-19T19:40:30.961Z,3.83
2023-05-19T19:43:07.015Z,3.60
2023-05-19T19:45:34.987Z,4.65
2023-05-19T19:48:02.448Z,3.47
2023-05-19T19:50:29.792Z,3.00
2023-05-19T19:52:57.094Z,3.38
2023-05-19T19:55:24.472Z,4.30
2023-05-19T19:57:51.754Z,3.42
2023-05-19T20:00:19.005Z,4.60
2023-05-19T20:05:18.949Z,3.70
2023-05-19T20:07:46.324Z,3.90
2023-05-19T20:10:13.658Z,4.25
2023-05-19T20:12:41.553Z,4.68
2023-05-19T20:15:09.085Z,5.03
2023-05-19T20:18:00.930Z,4.80
2023-05-19T20:20:36.482Z,4.50
2023-05-19T20:23:03.782Z,4.55
2023-05-19T20:25:31.116Z,4.57
2023-05-19T20:27:58.395Z,4.40
2023-05-19T20:30:27.805Z,7.10
2023-05-19T20:38:11.508Z,4.85
2023-05-19T20:43:09.224Z,4.93
2023-05-19T20:45:36.800Z,4.25
2023-05-19T20:48:04.875Z,4.82
2023-05-19T20:50:32.560Z,4.43
2023-05-19T20:53:00.164Z,3.90
2023-05-19T20:55:27.405Z,4.70
2023-05-19T20:57:54.677Z,4.85
2023-05-19T21:00:22.138Z,4.68
2023-05-19T21:02:49.617Z,4.88
2023-05-19T21:05:16.884Z,5.10
2023-05-19T21:07:44.352Z,4.82
2023-05-19T21:10:13.799Z,4.18
2023-05-19T21:12:41.329Z,4.45
2023-05-19T21:15:08.873Z,4.50
2023-05-19T21:17:36.496Z,4.57
2023-05-19T21:20:15.546Z,4.63
2023-05-19T21:22:42.862Z,4.85
2023-05-19T21:25:10.288Z,4.13
2023-05-19T21:28:03.561Z,4.75
2023-05-19T21:30:30.866Z,4.00
2023-05-19T21:32:58.648Z,4.90
2023-05-19T21:35:26.150Z,4.50
2023-05-19T21:37:53.545Z,4.00
2023-05-19T21:40:23.842Z,3.97
2023-05-19T21:42:56.988Z,4.07
2023-05-19T21:45:48.802Z,3.92
2023-05-19T21:48:16.155Z,4.32
2023-05-19T21:50:43.547Z,3.75
2023-05-19T21:53:10.827Z,3.78
2023-05-19T21:58:30.098Z,3.85
2023-05-19T22:00:57.594Z,3.67
2023-05-19T22:03:33.735Z,3.65
2023-05-19T22:06:01.704Z,3.67
2023-05-19T22:08:29.016Z,3.72
2023-05-19T22:10:56.418Z,3.90
2023-05-19T22:13:24.700Z,4.15
2023-05-19T22:16:01.356Z,3.35
2023-05-19T22:18:28.681Z,4.20
2023-05-19T22:20:55.911Z,3.83
2023-05-19T22:23:23.150Z,3.53
2023-05-19T22:25:50.111Z,4.55
2023-05-19T22:28:20.030Z,3.67
2023-05-19T22:30:47.241Z,3.97
2023-05-19T22:33:14.762Z,3.90
2023-05-19T22:35:42.709Z,4.03
2023-05-19T22:38:10.831Z,4.07
2023-05-19T22:40:38.770Z,3.60
2023-05-19T22:43:06.126Z,4.05
2023-05-19T22:45:37.820Z,4.47
2023-05-19T22:48:05.697Z,4.35
2023-05-19T22:50:32.921Z,4.20
2023-05-19T22:53:00.223Z,3.92
2023-05-19T22:55:27.632Z,3.88
2023-05-19T22:57:55.053Z,4.55
2023-05-19T23:00:22.676Z,3.83
2023-05-19T23:02:50.264Z,3.83
2023-05-19T23:05:21.529Z,3.60
2023-05-19T23:07:48.961Z,3.95
2023-05-19T23:10:16.360Z,3.53
2023-05-19T23:12:43.768Z,4.18
2023-05-19T23:15:11.329Z,4.10
2023-05-19T23:17:38.664Z,4.10
2023-05-19T23:20:06.526Z,3.85
2023-05-19T23:22:33.863Z,4.00
2023-05-19T23:25:05.717Z,4.78
2023-05-19T23:27:39.106Z,4.32
2023-05-19T23:30:09.231Z,4.57
2023-05-19T23:32:36.836Z,4.13
2023-05-19T23:35:11.532Z,4.15
2023-05-19T23:37:38.828Z,4.13
2023-05-19T23:40:07.286Z,3.75
2023-05-19T23:42:52.799Z,3.90
2023-05-19T23:45:20.310Z,4.13
2023-05-19T23:47:53.150Z,4.32
2023-05-19T23:50:46.074Z,4.28
2023-05-19T23:53:13.610Z,4.20
2023-05-19T23:55:40.871Z,4.20
2023-05-19T23:58:08.413Z,4.18
